CheckWX is a tool to help pilots better visualize weather data.  It is not intended as a substitute for an official pre-flight weather briefing.

15:07:18 UTC

KDAY TAF
James M Cox Dayton International Airport
Dayton, Ohio, USA
KDAY 281122Z 2812/2912 19010KT P6SM SCT040 BKN150 FM281500 22013KT P6SM SCT025 BKN040 FM281700 22013KT P6SM VCTS BKN022 OVC040CB FM282100 20012KT P6SM BKN040 FM290600 21014G22KT P6SM VCSH BKN040 FM290900 23015G23KT P6SM SCT045

Mar-28@
12:00 UTC

Mar-28 @ 12:00 UTC

Mar-28@
15:00 UTC

Mar-28 @ 15:00 UTC

TAF KDAY 281122Z 2812/2912 19010KT P6SM SCT040 BKN150

Expired

Wind
  • 190° at 10 KTS
Cloud Levels
  • Scattered at 4,000' AGL
  • Broken at 15,000' AGL

Mar-28@
15:00 UTC

Mar-28 @ 15:00 UTC

Mar-28@
17:00 UTC

Mar-28 @ 17:00 UTC

FM281500 22013KT P6SM SCT025 BKN040

From

From Standard forecast or significant change

Wind
  • 220° at 13 KTS
Cloud Levels
  • Scattered at 2,500' AGL
  • Broken at 4,000' AGL

Mar-28@
17:00 UTC

Mar-28 @ 17:00 UTC

Mar-28@
21:00 UTC

Mar-28 @ 21:00 UTC

FM281700 22013KT P6SM VCTS BKN022 OVC040CB

From

From Standard forecast or significant change

Wind
  • 220° at 13 KTS
Conditions
Area Thunderstorm
Cloud Levels
  • Broken at 2,200' AGL
  • Overcast at 4,000' AGL

Mar-28@
21:00 UTC

Mar-28 @ 21:00 UTC

Mar-29@
06:00 UTC

Mar-29 @ 06:00 UTC

FM282100 20012KT P6SM BKN040

From

From Standard forecast or significant change

Wind
  • 200° at 12 KTS
Cloud Levels
  • Broken at 4,000' AGL

Mar-29@
06:00 UTC

Mar-29 @ 06:00 UTC

Mar-29@
09:00 UTC

Mar-29 @ 09:00 UTC

FM290600 21014G22KT P6SM VCSH BKN040

From

From Standard forecast or significant change

Wind
  • 210° at 14 KTS
  • {Gusting to 22 KTS
Conditions
Area Showers
Cloud Levels
  • Broken at 4,000' AGL

Mar-29@
09:00 UTC

Mar-29 @ 09:00 UTC

Mar-29@
12:00 UTC

Mar-29 @ 12:00 UTC

FM290900 23015G23KT P6SM SCT045

From

From Standard forecast or significant change

Wind
  • 230° at 15 KTS
  • {Gusting to 23 KTS
Cloud Levels
  • Scattered at 4,500' AGL